Time;durP1;ratioP1;P1;durP2;ratioP2;P2;SDS_P1;SDS_P2;PMS_P1;PMS_P2;Temp;Humidity;BMP_temperature;BMP_pressure;BME280_temperature;BME280_humidity;BME280_pressure;Samples;Min_cycle;Max_cycle;Signal;HPM_P1;HPM_P2
2023/04/01 00:00:29;;;;;;;9.77;5.95;;;9.90;99.90;;;;;;4754615;30;20126;-85
2023/04/01 00:02:55;;;;;;;10.63;6.50;;;10.00;99.90;;;;;;4766868;30;20883;-85
2023/04/01 00:05:29;;;;;;;6.90;6.20;;;9.90;99.90;;;;;;4738375;30;20559;-85
2023/04/01 00:07:57;;;;;;;6.95;6.30;;;9.90;99.90;;;;;;4754029;30;20628;-85
2023/04/01 00:10:42;;;;;;;7.10;6.07;;;9.90;99.90;;;;;;4767913;30;20105;-85
2023/04/01 00:17:09;;;;;;;6.65;6.00;;;10.00;99.90;;;;;;4699615;30;20498;-85
2023/04/01 00:19:41;;;;;;;6.28;5.63;;;9.90;99.90;;;;;;4717580;30;20090;-85
2023/04/01 00:26:21;;;;;;;7.05;5.43;;;10.10;99.90;;;;;;4770277;30;20950;-85
2023/04/01 00:29:36;;;;;;;5.10;4.68;;;9.90;99.90;;;;;;4767679;30;20047;-86
2023/04/01 00:32:12;;;;;;;6.72;4.50;;;9.90;99.90;;;;;;4767211;30;20093;-85
2023/04/01 00:35:12;;;;;;;5.00;4.43;;;10.00;99.90;;;;;;4739463;30;20112;-85
2023/04/01 00:37:47;;;;;;;4.20;3.53;;;9.90;99.90;;;;;;4747356;30;20047;-85
2023/04/01 00:40:41;;;;;;;4.72;4.32;;;9.80;99.90;;;;;;4753385;30;20075;-85
2023/04/01 00:43:20;;;;;;;4.90;4.50;;;10.00;99.90;;;;;;4749581;30;20188;-85
2023/04/01 00:45:47;;;;;;;4.80;4.40;;;9.80;99.90;;;;;;4768549;30;20130;-84
2023/04/01 00:48:20;;;;;;;4.65;4.22;;;9.90;99.90;;;;;;4767907;30;20828;-85
2023/04/01 00:50:51;;;;;;;3.95;3.58;;;9.80;99.90;;;;;;4753894;30;20050;-85
2023/04/01 00:53:19;;;;;;;4.65;3.97;;;9.80;99.90;;;;;;4753381;30;20066;-84
2023/04/01 00:55:53;;;;;;;3.15;2.85;;;9.80;99.90;;;;;;4753034;30;20053;-85
2023/04/01 00:58:23;;;;;;;4.78;3.80;;;9.80;99.90;;;;;;4767009;30;20757;-84
2023/04/01 01:00:56;;;;;;;5.57;3.58;;;9.80;99.90;;;;;;4761200;30;20096;-85
2023/04/01 01:03:30;;;;;;;;;;;9.80;99.90;;;;;;4767392;30;20035;-85
2023/04/01 01:06:55;;;;;;;4.97;3.28;;;9.80;99.90;;;;;;4771783;30;19936;-85
2023/04/01 01:09:52;;;;;;;3.22;2.78;;;9.80;99.90;;;;;;4768506;30;20075;-85
2023/04/01 01:12:26;;;;;;;2.78;2.40;;;9.80;99.90;;;;;;4737718;30;20052;-85
2023/04/01 01:15:16;;;;;;;3.63;2.22;;;9.80;99.90;;;;;;4766397;30;20047;-85
2023/04/01 01:19:00;;;;;;;3.47;2.03;;;9.80;99.90;;;;;;4748723;30;20043;-85
2023/04/01 01:21:49;;;;;;;3.10;2.30;;;9.80;99.90;;;;;;4754996;30;20664;-85
2023/04/01 01:24:37;;;;;;;2.33;2.10;;;9.70;99.90;;;;;;4769742;30;20130;-85
2023/04/01 01:27:41;;;;;;;2.92;2.17;;;9.70;99.90;;;;;;4745017;30;20048;-85
2023/04/01 01:30:31;;;;;;;3.45;1.85;;;9.80;99.90;;;;;;4763115;30;20058;-86
2023/04/01 01:34:04;;;;;;;2.60;1.60;;;9.60;99.90;;;;;;4752725;30;20127;-86
2023/04/01 01:37:21;;;;;;;3.00;1.85;;;9.60;99.90;;;;;;4752129;30;20117;-86
2023/04/01 01:40:12;;;;;;;2.58;2.00;;;9.70;99.90;;;;;;4749471;30;20052;-85
2023/04/01 01:43:01;;;;;;;3.42;2.50;;;9.60;99.90;;;;;;4769962;30;20043;-85
2023/04/01 01:45:34;;;;;;;3.90;2.58;;;9.60;99.90;;;;;;4768537;30;20051;-85
2023/04/01 01:48:07;;;;;;;4.75;3.08;;;9.60;99.90;;;;;;4739751;30;20685;-85
2023/04/01 01:50:36;;;;;;;2.80;2.60;;;9.60;99.90;;;;;;4766243;30;20104;-84
2023/04/01 01:53:08;;;;;;;4.13;2.83;;;9.90;99.90;;;;;;4755186;30;20039;-85
2023/04/01 01:55:36;;;;;;;4.80;3.38;;;9.70;99.90;;;;;;4748539;30;20097;-85
2023/04/01 01:58:17;;;;;;;4.82;3.47;;;9.60;99.90;;;;;;4765731;30;20032;-85
2023/04/01 02:00:49;;;;;;;5.70;3.70;;;9.60;99.90;;;;;;4755735;30;20079;-84
2023/04/01 02:03:16;;;;;;;6.60;4.25;;;9.60;99.90;;;;;;4751662;30;20039;-85
2023/04/01 02:05:43;;;;;;;6.07;4.30;;;9.60;99.90;;;;;;4762608;30;20039;-85
2023/04/01 02:08:21;;;;;;;7.32;5.03;;;10.10;99.90;;;;;;4750893;30;20032;-85
2023/04/01 02:11:00;;;;;;;6.00;4.30;;;9.60;99.90;;;;;;4753740;30;20052;-85
2023/04/01 02:13:55;;;;;;;5.60;5.00;;;9.70;99.90;;;;;;4745415;30;20040;-85
2023/04/01 02:16:30;;;;;;;5.90;5.30;;;9.70;99.90;;;;;;4751650;30;20139;-85
2023/04/01 02:18:59;;;;;;;6.80;5.57;;;9.70;99.90;;;;;;4752598;30;20050;-85
2023/04/01 02:21:30;;;;;;;7.05;5.75;;;9.70;99.90;;;;;;4751700;30;20047;-85
2023/04/01 02:23:58;;;;;;;8.02;6.28;;;9.70;99.90;;;;;;4755981;30;20055;-85
2023/04/01 02:26:26;;;;;;;7.80;6.20;;;9.70;99.90;;;;;;4767927;30;20051;-85
2023/04/01 02:28:54;;;;;;;8.55;6.07;;;9.70;99.90;;;;;;4758752;30;20100;-85
2023/04/01 02:31:21;;;;;;;8.82;6.00;;;9.70;99.90;;;;;;4765523;30;20051;-85
2023/04/01 02:33:47;;;;;;;7.97;5.97;;;9.70;99.90;;;;;;4754909;30;20067;-85
2023/04/01 02:36:15;;;;;;;9.93;6.57;;;9.70;99.90;;;;;;4749427;30;20530;-85
2023/04/01 02:38:42;;;;;;;7.90;6.50;;;9.80;99.90;;;;;;4754414;30;20089;-85
2023/04/01 02:41:08;;;;;;;7.95;6.40;;;9.70;99.90;;;;;;4767918;30;20079;-85
2023/04/01 02:43:34;;;;;;;9.25;6.65;;;9.70;99.90;;;;;;4749400;30;20063;-84
2023/04/01 02:45:59;;;;;;;9.23;7.00;;;9.70;99.90;;;;;;4768264;30;20051;-85
2023/04/01 02:48:25;;;;;;;7.55;6.72;;;9.70;99.90;;;;;;4751368;30;20048;-85
2023/04/01 02:50:50;;;;;;;9.20;6.70;;;9.70;99.90;;;;;;4767409;30;20043;-85
2023/04/01 02:53:16;;;;;;;10.68;7.30;;;9.70;99.90;;;;;;4751524;30;20044;-85
2023/04/01 02:55:42;;;;;;;9.98;7.28;;;10.10;99.90;;;;;;4750495;30;20464;-85
2023/04/01 02:58:07;;;;;;;10.25;6.88;;;10.00;99.90;;;;;;4767314;30;20035;-85
2023/04/01 03:00:33;;;;;;;9.85;7.43;;;9.70;99.90;;;;;;4765531;30;20043;-85
2023/04/01 03:02:59;;;;;;;12.48;8.10;;;9.80;99.90;;;;;;4751500;30;20399;-86
2023/04/01 03:05:25;;;;;;;10.25;8.02;;;9.70;99.90;;;;;;4737052;30;20040;-86
2023/04/01 03:07:51;;;;;;;12.65;8.90;;;9.70;99.90;;;;;;4766613;30;20064;-86
2023/04/01 03:10:16;;;;;;;8.35;6.90;;;9.70;99.90;;;;;;4751573;30;20052;-85
2023/04/01 03:12:42;;;;;;;8.77;7.25;;;9.70;99.90;;;;;;4751893;30;20048;-85
2023/04/01 03:15:11;;;;;;;10.02;7.70;;;9.70;99.90;;;;;;4767955;30;20048;-86
2023/04/01 03:17:37;;;;;;;13.50;8.43;;;9.70;99.90;;;;;;4752331;30;20395;-86
2023/04/01 03:20:04;;;;;;;10.02;7.25;;;9.70;99.90;;;;;;4751830;30;20055;-85
2023/04/01 03:22:30;;;;;;;11.38;8.32;;;9.70;99.90;;;;;;4752533;30;20044;-85
2023/04/01 03:24:56;;;;;;;10.38;7.85;;;9.70;99.90;;;;;;4751017;30;20466;-85
2023/04/01 03:27:21;;;;;;;12.48;8.65;;;9.70;99.90;;;;;;4753658;30;20043;-85
2023/04/01 03:29:47;;;;;;;11.75;8.63;;;9.70;99.90;;;;;;4750146;30;20044;-85
2023/04/01 03:32:12;;;;;;;10.20;7.60;;;10.20;99.90;;;;;;4752171;30;20044;-86
2023/04/01 03:34:38;;;;;;;10.85;7.72;;;9.70;99.90;;;;;;4766751;30;20083;-85
2023/04/01 03:37:04;;;;;;;10.40;8.15;;;9.70;99.90;;;;;;4767239;30;20496;-85
2023/04/01 03:39:31;;;;;;;14.00;8.35;;;9.70;99.90;;;;;;4750749;30;20127;-86
2023/04/01 03:41:57;;;;;;;12.23;8.70;;;9.90;99.90;;;;;;4749652;30;21082;-85
2023/04/01 03:44:22;;;;;;;12.23;9.27;;;9.80;99.90;;;;;;4772576;30;20123;-86
2023/04/01 03:46:48;;;;;;;11.23;8.68;;;9.80;99.90;;;;;;4767516;30;20040;-86
2023/04/01 03:49:13;;;;;;;8.70;7.82;;;9.70;99.90;;;;;;4765871;30;20060;-85
2023/04/01 03:51:41;;;;;;;11.98;7.70;;;9.70;99.90;;;;;;4765928;30;20075;-85
2023/04/01 03:54:07;;;;;;;11.35;7.63;;;9.70;99.90;;;;;;4750860;30;20054;-85
2023/04/01 03:56:32;;;;;;;8.63;7.13;;;9.70;99.90;;;;;;4750756;30;20043;-85
2023/04/01 03:58:58;;;;;;;9.80;7.30;;;9.70;99.90;;;;;;4747422;30;20044;-85
2023/04/01 04:01:24;;;;;;;8.68;6.78;;;9.70;99.90;;;;;;4750941;30;20050;-85
2023/04/01 04:03:50;;;;;;;10.43;7.78;;;9.70;99.90;;;;;;4748193;30;20427;-85
2023/04/01 04:06:18;;;;;;;9.93;7.18;;;9.80;99.90;;;;;;4765983;30;20031;-85
2023/04/01 04:08:44;;;;;;;8.65;6.75;;;9.70;99.90;;;;;;4750863;30;20044;-85
2023/04/01 04:11:10;;;;;;;8.73;7.10;;;10.00;99.90;;;;;;4749923;30;20526;-85
2023/04/01 04:13:36;;;;;;;7.22;6.15;;;10.20;99.90;;;;;;4764732;30;20051;-85
2023/04/01 04:16:02;;;;;;;9.73;7.25;;;9.70;99.90;;;;;;4765482;30;20036;-85
2023/04/01 04:18:28;;;;;;;7.22;6.30;;;10.30;99.90;;;;;;4765515;30;20047;-85
2023/04/01 04:20:54;;;;;;;8.10;6.38;;;9.70;99.90;;;;;;4748316;30;20051;-85
2023/04/01 04:23:20;;;;;;;6.80;6.03;;;9.80;99.90;;;;;;4765390;30;20048;-86
2023/04/01 04:25:57;;;;;;;8.80;6.07;;;9.70;99.90;;;;;;4751189;30;20039;-85
2023/04/01 04:28:24;;;;;;;8.43;6.13;;;9.70;99.90;;;;;;4749302;30;20055;-85
2023/04/01 04:30:50;;;;;;;7.70;6.00;;;9.70;99.90;;;;;;4750210;30;20040;-86
2023/04/01 04:33:15;;;;;;;9.13;6.20;;;9.90;99.90;;;;;;4749800;30;20136;-86
2023/04/01 04:35:41;;;;;;;9.32;6.07;;;9.70;99.90;;;;;;4751238;30;20039;-86
2023/04/01 04:38:06;;;;;;;7.93;6.40;;;10.00;99.90;;;;;;4754680;30;20073;-85
2023/04/01 04:40:32;;;;;;;8.82;6.38;;;9.70;99.90;;;;;;4769004;30;20047;-85
2023/04/01 04:42:57;;;;;;;8.52;6.53;;;10.00;99.90;;;;;;4753080;30;20053;-85
2023/04/01 04:45:23;;;;;;;8.65;6.68;;;9.70;99.90;;;;;;4740690;30;20056;-85
2023/04/01 04:47:49;;;;;;;10.52;7.10;;;9.60;99.90;;;;;;4752929;30;20051;-85
2023/04/01 04:50:14;;;;;;;10.05;6.68;;;9.70;99.90;;;;;;4738877;30;20044;-85
2023/04/01 04:52:40;;;;;;;9.23;6.35;;;9.70;99.90;;;;;;4753631;30;20055;-85
2023/04/01 04:55:06;;;;;;;8.32;5.97;;;9.80;99.90;;;;;;4753445;30;20130;-85
2023/04/01 04:57:31;;;;;;;9.52;6.50;;;9.70;99.90;;;;;;4768578;30;20491;-85
2023/04/01 04:59:57;;;;;;;12.68;7.10;;;9.70;99.90;;;;;;4769006;30;20079;-85
2023/04/01 05:02:23;;;;;;;10.65;7.07;;;9.90;99.90;;;;;;4765476;30;20097;-85
2023/04/01 05:04:48;;;;;;;8.65;6.25;;;9.70;99.90;;;;;;4768257;30;20105;-85
2023/04/01 05:07:14;;;;;;;9.98;6.50;;;9.70;99.90;;;;;;4766134;30;20051;-85
2023/04/01 05:09:40;;;;;;;9.38;6.78;;;9.70;99.90;;;;;;4769575;30;20036;-85
2023/04/01 05:12:05;;;;;;;9.80;6.40;;;9.70;99.90;;;;;;4754859;30;20051;-85
2023/04/01 05:14:31;;;;;;;9.70;6.38;;;9.70;99.90;;;;;;4767239;30;20580;-85
2023/04/01 05:16:56;;;;;;;7.70;5.88;;;9.70;99.90;;;;;;4766360;30;20058;-85
2023/04/01 05:19:22;;;;;;;9.57;6.85;;;9.70;99.90;;;;;;4767858;30;20048;-85
2023/04/01 05:21:47;;;;;;;6.32;5.50;;;9.70;99.90;;;;;;4754274;30;20134;-85
2023/04/01 05:24:13;;;;;;;9.73;6.18;;;9.70;99.90;;;;;;4753460;30;20054;-85
2023/04/01 05:26:39;;;;;;;6.70;5.68;;;9.70;99.90;;;;;;4751786;30;20047;-85
2023/04/01 05:29:05;;;;;;;7.40;6.40;;;9.70;99.90;;;;;;4755444;30;20052;-85
2023/04/01 05:31:31;;;;;;;7.97;6.35;;;10.00;99.90;;;;;;4766129;30;20044;-85
2023/04/01 05:33:56;;;;;;;9.65;6.00;;;9.70;99.90;;;;;;4769045;30;20403;-85
2023/04/01 05:36:22;;;;;;;7.32;5.53;;;9.70;99.90;;;;;;4770131;30;20096;-85
2023/04/01 05:38:48;;;;;;;8.13;6.30;;;9.90;99.90;;;;;;4770584;30;20063;-84
2023/04/01 05:41:14;;;;;;;8.70;6.43;;;9.90;99.90;;;;;;4769115;30;20114;-85
2023/04/01 05:43:41;;;;;;;10.88;7.07;;;9.70;99.90;;;;;;4754293;30;20101;-85
2023/04/01 05:46:07;;;;;;;7.88;6.88;;;9.70;99.90;;;;;;4766125;30;20772;-85
2023/04/01 05:48:34;;;;;;;10.48;7.03;;;9.70;99.90;;;;;;4770553;30;20080;-85
2023/04/01 05:51:00;;;;;;;9.50;7.47;;;9.70;99.90;;;;;;4758957;30;20122;-85
2023/04/01 05:53:26;;;;;;;9.23;7.30;;;9.80;99.90;;;;;;4773505;30;20044;-84
2023/04/01 05:55:52;;;;;;;8.10;7.03;;;9.70;99.90;;;;;;4770418;30;20104;-84
2023/04/01 05:58:17;;;;;;;9.10;7.95;;;9.80;99.90;;;;;;4753429;30;20077;-84
2023/04/01 06:00:43;;;;;;;9.55;8.20;;;9.80;99.90;;;;;;4767224;30;20104;-85
2023/04/01 06:03:09;;;;;;;11.52;8.57;;;10.70;99.90;;;;;;4766644;30;20040;-85
2023/04/01 06:05:42;;;;;;;8.60;7.50;;;9.80;99.90;;;;;;4751984;30;20119;-84
2023/04/01 06:08:15;;;;;;;10.60;8.25;;;9.80;99.90;;;;;;4752938;30;20139;-84
2023/04/01 06:11:34;;;;;;;8.70;7.70;;;9.80;99.90;;;;;;4734092;30;20539;-85
2023/04/01 06:14:15;;;;;;;12.63;9.30;;;9.80;99.90;;;;;;4749954;30;20199;-82
2023/04/01 06:16:43;;;;;;;9.65;8.60;;;9.80;99.90;;;;;;4733305;30;20048;-84
2023/04/01 06:19:21;;;;;;;9.65;8.52;;;9.90;99.90;;;;;;4730154;30;20611;-84
2023/04/01 06:22:03;;;;;;;12.60;9.68;;;9.90;99.90;;;;;;4748238;30;20066;-84
2023/04/01 06:24:56;;;;;;;8.75;7.90;;;9.90;99.90;;;;;;4768895;30;20142;-84
2023/04/01 06:27:42;;;;;;;9.23;8.32;;;9.90;99.90;;;;;;4764625;30;20052;-84
2023/04/01 07:01:22;;;;;;;4.50;3.75;;;10.00;99.90;;;;;;4737645;30;20097;-85
2023/04/01 07:11:28;;;;;;;5.60;3.55;;;10.00;99.90;;;;;;4764647;30;20101;-84
2023/04/01 07:14:34;;;;;;;4.43;4.03;;;10.00;99.90;;;;;;4763280;30;20905;-86
2023/04/01 07:17:49;;;;;;;5.10;4.60;;;10.00;99.90;;;;;;4751028;30;20229;-86
2023/04/01 07:52:07;;;;;;;10.32;9.10;;;10.70;99.90;;;;;;4759109;30;20645;-85
2023/04/01 07:55:20;;;;;;;9.95;9.02;;;10.20;99.90;;;;;;4748693;30;20043;-85
2023/04/01 07:58:20;;;;;;;10.00;9.10;;;10.30;99.90;;;;;;4748125;30;20087;-86
2023/04/01 08:34:22;;;;;;;10.20;9.23;;;11.00;99.90;;;;;;4747047;30;20451;-86
2023/04/01 08:37:35;;;;;;;9.48;8.68;;;11.10;99.90;;;;;;4717841;30;20056;-87
2023/04/01 08:40:34;;;;;;;8.45;7.72;;;11.10;99.90;;;;;;4747540;30;20594;-87
2023/04/01 08:43:30;;;;;;;8.55;7.75;;;11.10;99.90;;;;;;4762299;30;20627;-85
2023/04/01 08:46:27;;;;;;;9.50;8.57;;;11.10;99.90;;;;;;4760590;30;20051;-85
2023/04/01 08:49:45;;;;;;;8.68;8.00;;;11.10;99.90;;;;;;4752250;30;20525;-87
2023/04/01 09:04:15;;;;;;;5.18;4.78;;;11.20;99.90;;;;;;4694217;30;20115;-85
2023/04/01 09:07:21;;;;;;;5.60;5.20;;;11.20;99.90;;;;;;4650455;30;20618;-84
2023/04/01 09:14:56;;;;;;;6.15;5.65;;;11.10;99.90;;;;;;4764375;29;20039;-85
2023/04/01 09:17:49;;;;;;;6.15;5.63;;;11.10;99.90;;;;;;4746219;30;20121;-83
2023/04/01 09:20:36;;;;;;;5.88;5.38;;;11.00;99.90;;;;;;4762467;30;20059;-84
2023/04/01 09:23:29;;;;;;;6.38;5.60;;;10.90;99.90;;;;;;4744399;30;20047;-84
2023/04/01 09:30:12;;;;;;;7.82;7.05;;;11.10;99.90;;;;;;4765347;30;20200;-83
2023/04/01 09:55:45;;;;;;;10.75;9.85;;;11.20;99.90;;;;;;4706001;30;20548;-84
2023/04/01 10:02:45;;;;;;;10.23;9.38;;;11.10;99.90;;;;;;4673630;30;20053;-85
2023/04/01 10:05:42;;;;;;;8.98;8.27;;;11.10;99.90;;;;;;4719486;30;20309;-84
2023/04/01 10:08:52;;;;;;;8.82;8.13;;;11.10;99.90;;;;;;4654253;30;20068;-85
2023/04/01 10:11:51;;;;;;;9.25;8.55;;;11.10;99.90;;;;;;4708441;30;20056;-85
2023/04/01 10:14:36;;;;;;;9.20;8.43;;;11.10;99.90;;;;;;4728154;30;20055;-84
2023/04/01 10:17:32;;;;;;;9.25;8.40;;;11.20;99.90;;;;;;4746371;30;20130;-84
2023/04/01 10:20:22;;;;;;;11.45;10.43;;;11.20;99.90;;;;;;4749365;30;20056;-86
2023/04/01 10:23:17;;;;;;;10.50;9.70;;;11.20;99.90;;;;;;4752343;30;20056;-85
2023/04/01 10:26:37;;;;;;;10.68;9.77;;;11.30;99.90;;;;;;4750100;30;20067;-85
2023/04/01 10:29:17;;;;;;;10.23;9.32;;;11.30;99.90;;;;;;4743774;30;20551;-85
2023/04/01 10:32:07;;;;;;;10.20;9.40;;;11.30;99.90;;;;;;4747778;30;20062;-86
2023/04/01 10:35:20;;;;;;;8.43;7.75;;;11.30;99.90;;;;;;4750441;30;20499;-85
2023/04/01 10:38:09;;;;;;;6.35;5.68;;;11.30;99.90;;;;;;4748005;30;20470;-83
2023/04/01 10:41:01;;;;;;;5.45;4.32;;;11.20;99.90;;;;;;4755765;30;20113;-85
2023/04/01 10:43:35;;;;;;;3.83;3.53;;;11.10;99.90;;;;;;4748121;30;20371;-82
2023/04/01 10:46:29;;;;;;;3.30;3.10;;;11.00;99.90;;;;;;4760400;30;20559;-86
2023/04/01 10:49:13;;;;;;;3.78;3.47;;;10.80;99.90;;;;;;4738765;30;20055;-81
2023/04/01 10:51:57;;;;;;;3.40;3.10;;;10.70;99.90;;;;;;4742632;30;20051;-82
2023/04/01 10:55:04;;;;;;;3.95;3.65;;;10.80;99.90;;;;;;4744046;30;20462;-83
2023/04/01 10:58:15;;;;;;;3.30;3.03;;;10.70;99.90;;;;;;4748901;30;20109;-82
2023/04/01 11:01:22;;;;;;;4.05;3.75;;;10.60;99.90;;;;;;4746316;30;20055;-84
2023/04/01 11:04:16;;;;;;;4.43;4.13;;;10.60;99.90;;;;;;4748809;30;20084;-83
2023/04/01 11:07:19;;;;;;;5.20;3.88;;;10.60;99.90;;;;;;4748413;30;20043;-84
2023/04/01 11:10:26;;;;;;;4.68;4.18;;;10.70;99.90;;;;;;4734422;30;20149;-85
2023/04/01 11:13:27;;;;;;;4.05;3.75;;;10.70;99.90;;;;;;4762079;30;20135;-85
2023/04/01 11:16:49;;;;;;;4.50;4.10;;;10.60;99.90;;;;;;4763638;30;20062;-83
2023/04/01 11:19:33;;;;;;;4.07;3.78;;;10.60;99.90;;;;;;4702733;30;20174;-84
2023/04/01 11:22:19;;;;;;;4.97;4.47;;;10.50;99.90;;;;;;4710513;30;20057;-83
2023/04/01 11:25:11;;;;;;;3.67;3.47;;;10.50;99.90;;;;;;4724730;30;20131;-85
2023/04/01 11:28:04;;;;;;;4.00;3.70;;;10.40;99.90;;;;;;4760258;30;20044;-84
2023/04/01 11:31:11;;;;;;;3.92;3.63;;;10.40;99.90;;;;;;4730025;30;20144;-85
2023/04/01 11:33:54;;;;;;;4.30;3.90;;;10.30;99.90;;;;;;4744676;30;20059;-85
2023/04/01 11:36:29;;;;;;;3.63;3.33;;;10.30;99.90;;;;;;4745708;30;20059;-82
2023/04/01 11:39:21;;;;;;;4.13;3.75;;;10.20;99.90;;;;;;4764051;30;20044;-84
2023/04/01 11:42:05;;;;;;;5.72;3.25;;;10.10;99.90;;;;;;4764304;30;20143;-84
2023/04/01 11:44:32;;;;;;;3.22;2.92;;;10.10;99.90;;;;;;4734021;30;20071;-84
2023/04/01 11:47:22;;;;;;;2.60;2.40;;;10.10;99.90;;;;;;4750411;30;20073;-83
2023/04/01 11:50:17;;;;;;;2.05;1.88;;;10.10;99.90;;;;;;4751264;30;20056;-82
2023/04/01 11:53:02;;;;;;;2.05;1.85;;;10.10;99.90;;;;;;4747878;30;20055;-83
2023/04/01 11:55:52;;;;;;;2.42;1.85;;;10.10;99.90;;;;;;4731448;30;20051;-84
2023/04/01 11:59:09;;;;;;;2.03;1.92;;;10.00;99.90;;;;;;4766862;30;20530;-85
2023/04/01 12:02:04;;;;;;;3.00;2.70;;;10.00;99.90;;;;;;4739655;30;20109;-84
2023/04/01 12:04:42;;;;;;;2.10;1.90;;;10.00;99.90;;;;;;4753528;30;20043;-84
2023/04/01 12:07:43;;;;;;;2.92;2.10;;;10.00;99.90;;;;;;4751534;30;20035;-84
2023/04/01 12:10:21;;;;;;;2.95;2.22;;;10.00;99.90;;;;;;4755300;30;20074;-84
2023/04/01 12:12:52;;;;;;;2.08;1.80;;;9.90;99.90;;;;;;4750031;30;20624;-84
2023/04/01 12:15:39;;;;;;;2.25;2.05;;;10.00;99.90;;;;;;4752496;30;20044;-83
2023/04/01 12:18:17;;;;;;;2.17;1.98;;;10.00;99.90;;;;;;4765925;30;20128;-84
2023/04/01 12:20:52;;;;;;;2.33;2.10;;;10.20;99.90;;;;;;4752482;30;20554;-84
2023/04/01 12:23:37;;;;;;;2.33;2.22;;;10.00;99.90;;;;;;4765852;30;20081;-83
2023/04/01 12:26:33;;;;;;;2.40;2.20;;;10.00;99.90;;;;;;4747463;30;20052;-83
2023/04/01 12:29:18;;;;;;;2.70;2.50;;;10.00;99.90;;;;;;4766590;30;20057;-83
2023/04/01 12:32:17;;;;;;;2.50;2.38;;;10.10;99.90;;;;;;4739555;30;20043;-83
2023/04/01 12:34:57;;;;;;;2.72;2.40;;;10.10;99.90;;;;;;4752463;30;20071;-83
2023/04/01 12:37:29;;;;;;;3.42;3.13;;;10.10;99.90;;;;;;4752970;30;20075;-84
2023/04/01 12:40:16;;;;;;;3.90;3.60;;;10.00;99.90;;;;;;4752074;30;20105;-84
2023/04/01 12:43:01;;;;;;;3.90;3.60;;;10.10;99.90;;;;;;4767812;30;20086;-84
2023/04/01 12:45:44;;;;;;;3.67;3.38;;;10.00;99.90;;;;;;4746860;30;20044;-84
2023/04/01 12:48:42;;;;;;;3.70;3.40;;;10.00;99.90;;;;;;4752532;30;20455;-84
2023/04/01 12:51:37;;;;;;;3.10;2.90;;;10.00;99.90;;;;;;4753332;30;20562;-84
2023/04/01 12:54:03;;;;;;;3.50;3.20;;;10.00;99.90;;;;;;4765397;30;20067;-84
2023/04/01 12:56:50;;;;;;;2.67;2.47;;;10.00;99.90;;;;;;4752439;30;20079;-84
2023/04/01 12:59:57;;;;;;;2.78;2.58;;;10.00;99.90;;;;;;4759788;30;20067;-84
2023/04/01 13:02:34;;;;;;;2.30;2.10;;;10.00;99.90;;;;;;4753517;30;20415;-84
2023/04/01 13:05:30;;;;;;;3.80;2.17;;;9.90;99.90;;;;;;4753405;30;20136;-83
2023/04/01 13:08:05;;;;;;;;;;;10.00;99.90;;;;;;4754019;30;20109;-83
2023/04/01 13:10:43;;;;;;;2.55;2.35;;;9.90;99.90;;;;;;4753102;30;20013;-84
2023/04/01 13:13:28;;;;;;;2.53;2.33;;;10.00;99.90;;;;;;4752966;30;20491;-83
2023/04/01 13:16:05;;;;;;;2.38;2.28;;;9.80;99.90;;;;;;4768409;30;20101;-84
2023/04/01 13:18:52;;;;;;;2.55;2.35;;;9.80;99.90;;;;;;4735795;30;20442;-84
2023/04/01 13:21:20;;;;;;;3.10;2.40;;;9.80;99.90;;;;;;4764736;30;20044;-84
2023/04/01 13:24:15;;;;;;;3.33;2.80;;;9.70;99.90;;;;;;4750171;30;21853;-85
2023/04/01 13:26:56;;;;;;;3.08;2.88;;;9.50;99.90;;;;;;4768570;30;20074;-84
2023/04/01 13:29:31;;;;;;;3.22;2.90;;;9.50;99.90;;;;;;4766733;30;20120;-84
2023/04/01 13:32:39;;;;;;;3.47;3.10;;;9.50;99.90;;;;;;4753019;30;20055;-84
2023/04/01 13:35:10;;;;;;;7.38;3.95;;;9.50;99.90;;;;;;4748536;30;20060;-84
2023/04/01 13:37:51;;;;;;;2.78;2.58;;;9.40;99.90;;;;;;4751519;30;20047;-83
2023/04/01 13:40:39;;;;;;;2.55;2.35;;;9.50;99.90;;;;;;4752764;30;20517;-84
2023/04/01 13:43:12;;;;;;;3.30;3.00;;;9.50;99.90;;;;;;4751798;30;20078;-83
2023/04/01 13:45:37;;;;;;;2.53;2.40;;;9.50;99.90;;;;;;4766842;30;20043;-83
2023/04/01 13:48:34;;;;;;;2.20;2.10;;;9.50;99.90;;;;;;4767787;30;20068;-83
2023/04/01 13:51:33;;;;;;;2.30;2.08;;;9.40;99.90;;;;;;4735979;30;20051;-84
2023/04/01 13:54:24;;;;;;;3.53;1.90;;;9.30;99.90;;;;;;4751426;30;20047;-84
2023/04/01 13:57:37;;;;;;;1.83;1.73;;;9.20;99.90;;;;;;4745952;30;20091;-84
2023/04/01 14:00:36;;;;;;;4.63;2.03;;;9.20;99.90;;;;;;4729992;30;20063;-84
2023/04/01 14:03:30;;;;;;;1.92;1.65;;;9.20;99.90;;;;;;4752412;30;20048;-85
2023/04/01 14:06:15;;;;;;;1.88;1.55;;;9.20;99.90;;;;;;4737777;30;20051;-84
2023/04/01 14:09:06;;;;;;;3.70;1.88;;;9.20;99.90;;;;;;4752501;30;20088;-84
2023/04/01 14:12:04;;;;;;;1.85;1.75;;;9.20;99.90;;;;;;4767763;30;20043;-84
2023/04/01 14:14:55;;;;;;;2.03;1.45;;;9.10;99.90;;;;;;4752611;30;20044;-83
2023/04/01 14:17:48;;;;;;;1.60;1.40;;;9.10;99.90;;;;;;4767454;30;20494;-85
2023/04/01 14:20:30;;;;;;;1.75;1.40;;;9.10;99.90;;;;;;4749384;30;20074;-84
2023/04/01 14:23:14;;;;;;;1.10;1.00;;;9.10;99.90;;;;;;4764099;30;20526;-84
2023/04/01 14:25:55;;;;;;;1.17;0.90;;;9.10;99.90;;;;;;4752554;30;20134;-83
2023/04/01 14:28:30;;;;;;;1.30;1.20;;;9.00;99.90;;;;;;4748747;30;20136;-84
2023/04/01 14:31:23;;;;;;;0.70;0.70;;;9.00;99.90;;;;;;4767197;30;20051;-83
2023/04/01 14:34:10;;;;;;;2.60;0.95;;;9.10;99.90;;;;;;4767384;30;20120;-84
2023/04/01 14:36:53;;;;;;;0.70;0.68;;;9.00;99.90;;;;;;4766478;30;20540;-83
2023/04/01 14:39:41;;;;;;;1.35;0.93;;;8.90;99.90;;;;;;4766088;30;20061;-84
2023/04/01 14:42:27;;;;;;;1.13;1.00;;;8.90;99.90;;;;;;4766045;30;20035;-84
2023/04/01 14:45:19;;;;;;;0.68;0.65;;;8.90;99.90;;;;;;4767131;30;20126;-83
2023/04/01 14:48:33;;;;;;;0.70;0.70;;;8.80;99.90;;;;;;4750522;30;20046;-83
2023/04/01 14:51:27;;;;;;;1.00;0.82;;;8.90;99.90;;;;;;4753315;30;20384;-84
2023/04/01 14:54:06;;;;;;;1.02;0.93;;;8.80;99.90;;;;;;4749640;30;20503;-85
2023/04/01 14:57:09;;;;;;;0.80;0.80;;;8.80;99.90;;;;;;4764538;30;20040;-84
2023/04/01 14:59:40;;;;;;;1.15;1.05;;;8.80;99.90;;;;;;4751425;30;20054;-83
2023/04/01 15:02:36;;;;;;;1.23;0.80;;;8.80;99.90;;;;;;4766408;30;20078;-84
2023/04/01 15:05:20;;;;;;;1.42;0.98;;;8.90;99.90;;;;;;4751158;30;20459;-84
2023/04/01 15:08:36;;;;;;;1.38;1.27;;;8.90;99.90;;;;;;4753406;30;20094;-84
2023/04/01 15:11:22;;;;;;;0.95;0.93;;;9.00;99.90;;;;;;4736501;30;20063;-83
2023/04/01 15:14:38;;;;;;;6.63;1.10;;;8.90;99.90;;;;;;4749316;30;20051;-84
2023/04/01 15:17:25;;;;;;;1.13;0.82;;;8.90;99.90;;;;;;4747321;30;20056;-83
2023/04/01 15:20:12;;;;;;;1.08;0.95;;;8.80;99.90;;;;;;4736521;30;20087;-83
2023/04/01 15:23:06;;;;;;;1.38;0.90;;;8.80;99.90;;;;;;4765907;30;20527;-84
2023/04/01 15:25:48;;;;;;;1.13;0.95;;;8.80;99.90;;;;;;4750518;30;20044;-83
2023/04/01 15:28:33;;;;;;;2.95;1.08;;;8.70;99.90;;;;;;4751614;30;20051;-83
2023/04/01 15:31:33;;;;;;;1.10;0.80;;;8.80;99.90;;;;;;4736955;30;20044;-83
2023/04/01 15:34:41;;;;;;;1.75;0.75;;;8.80;99.90;;;;;;4749375;30;20067;-83
2023/04/01 15:37:21;;;;;;;0.80;0.73;;;8.80;99.90;;;;;;4759250;30;20154;-83
2023/04/01 15:40:05;;;;;;;1.20;1.10;;;8.80;99.90;;;;;;4762713;30;20059;-84
2023/04/01 15:42:54;;;;;;;1.25;1.13;;;8.80;99.90;;;;;;4751413;30;20131;-84
2023/04/01 15:45:55;;;;;;;2.45;1.10;;;8.80;99.90;;;;;;4751710;30;20044;-84
2023/04/01 15:48:51;;;;;;;1.13;0.80;;;8.70;99.90;;;;;;4764154;30;20048;-83
2023/04/01 15:51:34;;;;;;;1.75;0.70;;;8.70;99.90;;;;;;4765259;30;20050;-84
2023/04/01 15:54:12;;;;;;;0.90;0.70;;;8.70;99.90;;;;;;4764808;30;20105;-84
2023/04/01 15:56:59;;;;;;;1.15;0.90;;;8.70;99.90;;;;;;4733965;30;20539;-84
2023/04/01 16:00:07;;;;;;;0.90;0.80;;;8.70;99.90;;;;;;4751397;30;20075;-84
2023/04/01 16:02:45;;;;;;;0.85;0.65;;;8.60;99.90;;;;;;4718641;30;20056;-83
2023/04/01 16:05:36;;;;;;;0.90;0.80;;;8.60;99.90;;;;;;4733399;30;20076;-83
2023/04/01 16:08:33;;;;;;;2.10;1.08;;;8.60;99.90;;;;;;4746910;30;20055;-84
2023/04/01 16:11:25;;;;;;;3.33;1.67;;;8.60;99.90;;;;;;4766154;30;20499;-84
2023/04/01 16:14:16;;;;;;;3.60;1.10;;;8.60;99.90;;;;;;4764785;30;20048;-81
2023/04/01 16:16:51;;;;;;;5.50;1.58;;;8.60;99.90;;;;;;4735787;30;20044;-83
2023/04/01 16:19:54;;;;;;;1.65;1.50;;;8.50;99.90;;;;;;4753893;30;20052;-85
2023/04/01 16:22:34;;;;;;;2.60;1.75;;;8.40;99.90;;;;;;4765530;30;20119;-87
2023/04/01 16:25:31;;;;;;;3.00;2.22;;;8.40;99.90;;;;;;4762193;30;20044;-88
2023/04/01 16:28:22;;;;;;;4.50;2.60;;;8.40;99.90;;;;;;4767637;30;20043;-85
2023/04/01 16:31:25;;;;;;;4.80;2.15;;;8.40;99.90;;;;;;4766140;30;20044;-87
2023/04/01 16:34:03;;;;;;;4.30;3.05;;;8.20;99.90;;;;;;4754248;30;20048;-87
2023/04/01 16:36:39;;;;;;;3.42;3.03;;;8.20;99.90;;;;;;4751452;30;20074;-86
2023/04/01 16:39:40;;;;;;;;;;;8.10;99.90;;;;;;4751367;30;20052;-85
2023/04/01 16:42:26;;;;;;;3.13;2.92;;;8.10;99.90;;;;;;4758300;30;19922;-85
2023/04/01 16:44:51;;;;;;;3.55;2.83;;;8.10;99.90;;;;;;4768517;30;20070;-86
2023/04/01 16:47:22;;;;;;;3.58;3.28;;;8.10;99.90;;;;;;4770903;30;20412;-84